Time;durP1;ratioP1;P1;durP2;ratioP2;P2;SDS_P1;SDS_P2;PMS_P1;PMS_P2;Temp;Humidity;BMP_temperature;BMP_pressure;BME280_temperature;BME280_humidity;BME280_pressure;Samples;Min_cycle;Max_cycle;Signal;HPM_P1;HPM_P2
2022/07/09 00:02:13;;;;;;;6.72;3.22;;;;;;;17.87;65.35;101181.81;5054937;28;20056;-57
2022/07/09 00:04:57;;;;;;;8.60;3.22;;;;;;;17.87;65.53;101184.44;5054975;28;20534;-57
2022/07/09 00:07:41;;;;;;;5.45;2.63;;;;;;;17.86;65.31;101180.91;5040036;28;20527;-57
2022/07/09 00:10:25;;;;;;;4.88;2.78;;;;;;;17.84;65.30;101182.66;5054649;28;20059;-57
2022/07/09 00:13:09;;;;;;;7.88;3.25;;;;;;;17.84;65.64;101180.03;5039591;28;20236;-58
2022/07/09 00:15:54;;;;;;;7.13;3.33;;;;;;;17.84;65.49;101180.03;5039624;28;20531;-57
2022/07/09 00:18:38;;;;;;;6.55;3.22;;;;;;;17.83;65.20;101183.53;5054631;28;20065;-57
2022/07/09 00:21:22;;;;;;;12.07;3.47;;;;;;;17.84;65.47;101179.16;5055023;28;20048;-57
2022/07/09 00:24:06;;;;;;;6.13;3.03;;;;;;;17.83;65.67;101178.28;5054643;28;20103;-57
2022/07/09 00:26:50;;;;;;;4.95;2.65;;;;;;;17.85;65.49;101183.56;5054907;28;20447;-58
2022/07/09 00:29:34;;;;;;;4.60;2.65;;;;;;;17.85;65.59;101178.31;5039454;28;20451;-59
2022/07/09 00:32:18;;;;;;;7.20;3.05;;;;;;;17.84;65.75;101181.78;5054707;28;20048;-57
2022/07/09 00:35:02;;;;;;;4.95;2.80;;;;;;;17.85;65.56;101178.31;5039608;28;20090;-58
2022/07/09 00:37:46;;;;;;;;;;;;;;;17.83;65.28;101174.78;5054863;28;20178;-58
2022/07/09 00:40:30;;;;;;;6.70;3.27;;;;;;;17.82;65.35;101176.56;5039192;28;19924;-58
2022/07/09 00:43:21;;;;;;;5.30;2.60;;;;;;;17.82;65.39;101168.69;5039091;28;20079;-58
2022/07/09 00:46:05;;;;;;;6.18;3.33;;;;;;;17.82;65.53;101171.31;5039194;28;20079;-58
2022/07/09 00:48:49;;;;;;;6.18;3.17;;;;;;;17.83;65.23;101161.69;5054439;28;20043;-58
2022/07/09 00:51:33;;;;;;;7.07;2.80;;;;;;;17.81;65.40;101162.56;5054137;28;20519;-58
2022/07/09 00:54:18;;;;;;;5.22;3.33;;;;;;;17.81;65.33;101165.19;5038814;28;20114;-58
2022/07/09 00:57:03;;;;;;;;;;;;;;;17.79;65.45;101166.91;5054476;28;20079;-59
2022/07/09 00:59:48;;;;;;;4.43;3.10;;;;;;;17.75;65.42;101167.75;5038848;28;19966;-58
2022/07/09 01:02:32;;;;;;;;;;;;;;;17.74;65.34;101166.03;5039172;28;20055;-58
2022/07/09 01:05:16;;;;;;;6.13;3.28;;;;;;;17.73;65.61;101172.16;5053515;28;20441;-58
2022/07/09 01:08:00;;;;;;;5.85;3.40;;;;;;;17.70;65.31;101161.63;5053716;28;20047;-58
2022/07/09 01:10:45;;;;;;;5.70;2.88;;;;;;;17.72;65.36;101165.16;5054148;28;20533;-58
2022/07/09 01:13:29;;;;;;;4.68;2.80;;;;;;;17.72;65.53;101161.63;5038983;28;20499;-58
2022/07/09 01:16:14;;;;;;;6.18;3.05;;;;;;;17.71;65.47;101154.63;5054054;28;20048;-58
2022/07/09 01:18:58;;;;;;;7.65;4.00;;;;;;;17.71;65.53;101150.28;5038825;28;20067;-59
2022/07/09 01:21:42;;;;;;;6.05;3.63;;;;;;;17.70;65.33;101161.63;5053345;28;20075;-59
2022/07/09 01:24:26;;;;;;;9.20;3.80;;;;;;;17.70;65.26;101161.63;5038472;28;20063;-57
2022/07/09 01:27:10;;;;;;;6.15;3.30;;;;;;;17.70;65.53;101161.63;5053354;28;20044;-57
2022/07/09 01:29:54;;;;;;;4.15;3.10;;;;;;;17.70;65.12;101158.13;5053543;28;20581;-57
2022/07/09 01:32:38;;;;;;;4.15;3.28;;;;;;;17.70;65.43;101150.25;5053000;28;20549;-58
2022/07/09 01:35:22;;;;;;;5.07;3.17;;;;;;;17.69;65.27;101149.41;5053285;28;20630;-57
2022/07/09 01:38:06;;;;;;;8.35;3.15;;;;;;;17.71;65.44;101152.91;5053206;28;20522;-57
2022/07/09 01:40:50;;;;;;;4.03;2.78;;;;;;;17.71;65.55;101147.66;5037880;28;20056;-57
2022/07/09 01:43:34;;;;;;;5.28;3.30;;;;;;;17.73;65.33;101145.03;5052908;28;20044;-58
2022/07/09 01:46:18;;;;;;;9.35;3.28;;;;;;;17.72;65.36;101146.81;5053537;28;20052;-59
2022/07/09 01:49:03;;;;;;;3.17;2.80;;;;;;;17.73;65.33;101142.41;5053274;28;20443;-59
2022/07/09 01:51:47;;;;;;;7.57;3.30;;;;;;;17.74;65.33;101144.16;5053386;28;20506;-59
2022/07/09 01:54:32;;;;;;;7.18;3.35;;;;;;;17.74;65.31;101145.06;5053356;28;20064;-57
2022/07/09 01:57:15;;;;;;;9.40;3.22;;;;;;;17.74;65.28;101146.78;5057470;28;20072;-57
2022/07/09 02:00:00;;;;;;;6.05;3.28;;;;;;;17.75;65.24;101143.31;5057356;28;20557;-58
2022/07/09 02:02:43;;;;;;;5.32;3.08;;;;;;;17.73;65.18;101139.78;5057261;28;20106;-58
2022/07/09 02:05:27;;;;;;;6.13;3.15;;;;;;;17.73;65.46;101145.94;5056888;28;20515;-57
2022/07/09 02:08:11;;;;;;;5.63;3.28;;;;;;;17.74;65.28;101144.16;5057492;28;20051;-57
2022/07/09 02:10:55;;;;;;;6.63;3.50;;;;;;;17.74;65.45;101141.53;5057485;28;20056;-57
2022/07/09 02:13:39;;;;;;;5.35;3.30;;;;;;;17.72;65.11;101140.66;5057318;28;20558;-58
2022/07/09 02:16:23;;;;;;;6.38;3.88;;;;;;;17.70;65.32;101127.56;5057157;28;20420;-57
2022/07/09 02:19:07;;;;;;;4.45;3.25;;;;;;;17.70;65.15;101121.44;5057139;28;20094;-58
2022/07/09 02:21:51;;;;;;;4.95;3.67;;;;;;;17.71;65.35;101125.81;5056982;28;20064;-57
2022/07/09 02:24:35;;;;;;;5.03;3.70;;;;;;;17.69;65.28;101132.78;5056931;28;20094;-57
2022/07/09 02:27:19;;;;;;;8.50;4.65;;;;;;;17.69;65.48;101127.53;5056698;28;20079;-57
2022/07/09 02:30:03;;;;;;;7.45;3.03;;;;;;;17.67;65.15;101124.06;5042197;28;20506;-57
2022/07/09 02:32:47;;;;;;;5.30;3.10;;;;;;;17.66;65.38;101117.94;5056551;28;20037;-56
2022/07/09 02:35:31;;;;;;;6.60;2.97;;;;;;;17.65;65.32;101126.66;5056240;28;20125;-56
2022/07/09 02:38:15;;;;;;;5.50;3.30;;;;;;;17.65;65.18;101122.31;5056601;28;20094;-57
2022/07/09 02:41:01;;;;;;;4.93;3.75;;;;;;;17.64;65.13;101123.19;5056258;28;20484;-57
2022/07/09 02:43:45;;;;;;;6.93;3.60;;;;;;;17.63;65.71;101118.81;5041948;28;20056;-57
2022/07/09 02:46:29;;;;;;;4.70;3.60;;;;;;;17.64;65.13;101125.78;5040936;28;20052;-57
2022/07/09 02:49:13;;;;;;;9.55;3.80;;;;;;;17.63;65.36;101118.81;5056363;28;20072;-56
2022/07/09 02:51:59;;;;;;;9.15;4.20;;;;;;;17.63;65.59;101128.41;5040885;28;20553;-58
2022/07/09 02:54:42;;;;;;;7.28;3.30;;;;;;;17.63;65.25;101123.16;5041625;28;20117;-58
2022/07/09 02:57:26;;;;;;;4.50;3.70;;;;;;;17.62;65.51;101118.78;5055976;28;20052;-57
2022/07/09 03:00:11;;;;;;;5.80;4.15;;;;;;;17.62;65.40;101124.03;5041236;28;20087;-57
2022/07/09 03:02:55;;;;;;;5.00;3.60;;;;;;;17.62;65.21;101114.44;5035036;28;20056;-57
2022/07/09 03:05:39;;;;;;;6.03;3.72;;;;;;;17.62;65.12;101118.78;5036307;28;20052;-57
2022/07/09 03:08:24;;;;;;;4.70;3.55;;;;;;;17.61;65.32;101115.28;5034332;28;20634;-57
2022/07/09 03:11:08;;;;;;;7.45;4.22;;;;;;;17.60;65.21;101115.28;5036852;28;20129;-58
2022/07/09 03:13:53;;;;;;;8.18;4.78;;;;;;;17.59;65.42;101111.78;5035240;28;20180;-58
2022/07/09 03:16:36;;;;;;;6.95;3.55;;;;;;;17.58;65.32;101112.66;5036081;28;20057;-56
2022/07/09 03:19:20;;;;;;;5.55;3.30;;;;;;;17.57;65.23;101110.91;5035918;28;20064;-57
2022/07/09 03:22:05;;;;;;;8.10;3.97;;;;;;;17.56;65.27;101111.78;5035902;28;20040;-57
2022/07/09 03:24:49;;;;;;;7.68;3.88;;;;;;;17.55;65.38;101110.00;5035371;28;20523;-58
2022/07/09 03:27:33;;;;;;;6.90;3.65;;;;;;;17.54;65.09;101110.03;5036132;28;20428;-59
2022/07/09 03:30:17;;;;;;;5.13;3.35;;;;;;;17.52;65.21;101107.38;5035665;28;20543;-59
2022/07/09 03:33:01;;;;;;;5.25;3.55;;;;;;;17.52;65.19;101112.63;5035375;28;20573;-58
2022/07/09 03:35:45;;;;;;;6.03;3.92;;;;;;;17.50;65.16;101112.63;5034588;28;20092;-58
2022/07/09 03:38:29;;;;;;;7.05;3.50;;;;;;;17.49;65.17;101118.72;5035606;28;20036;-59
2022/07/09 03:41:13;;;;;;;8.10;4.13;;;;;;;17.48;65.33;101113.50;5034644;28;20045;-59
2022/07/09 03:43:57;;;;;;;9.20;3.75;;;;;;;17.48;65.29;101109.13;5035804;28;20052;-59
2022/07/09 03:46:42;;;;;;;6.72;4.18;;;;;;;17.48;65.31;101106.50;5035059;28;20091;-59
2022/07/09 03:49:26;;;;;;;6.90;4.40;;;;;;;17.47;65.27;101104.75;5035603;28;20060;-58
2022/07/09 03:52:10;;;;;;;7.10;3.88;;;;;;;17.47;65.17;101119.59;5035208;28;20048;-58
2022/07/09 03:54:54;;;;;;;5.43;3.78;;;;;;;17.47;65.18;101116.97;5034584;28;20159;-58
2022/07/09 03:57:38;;;;;;;6.00;3.88;;;;;;;17.47;65.35;101115.22;5035131;28;20053;-58
2022/07/09 04:00:21;;;;;;;7.60;3.75;;;;;;;17.45;65.23;101111.72;5035123;28;20102;-59
2022/07/09 04:03:05;;;;;;;6.38;3.95;;;;;;;17.46;65.06;101107.38;5051527;28;20135;-60
2022/07/09 04:05:49;;;;;;;8.82;4.03;;;;;;;17.45;65.27;101110.84;5039864;28;20558;-59
2022/07/09 04:08:33;;;;;;;7.72;3.97;;;;;;;17.44;65.12;101114.34;5040242;28;20079;-58
2022/07/09 04:11:17;;;;;;;5.43;3.67;;;;;;;17.43;65.27;101108.25;5055163;28;20601;-57
2022/07/09 04:14:01;;;;;;;5.95;3.90;;;;;;;17.43;65.23;101113.47;5054879;28;20130;-57
2022/07/09 04:16:46;;;;;;;3.72;3.13;;;;;;;17.43;65.15;101112.59;5054588;28;20102;-56
2022/07/09 04:19:30;;;;;;;6.72;4.10;;;;;;;17.42;65.25;101113.47;5053869;28;20047;-57
2022/07/09 04:22:14;;;;;;;8.60;4.63;;;;;;;17.41;65.13;101115.22;5054740;28;20043;-57
2022/07/09 04:24:59;;;;;;;6.28;4.10;;;;;;;17.41;65.42;101116.94;5054995;28;20091;-57
2022/07/09 04:27:42;;;;;;;;;;;;;;;17.40;65.10;101118.69;5055097;28;20408;-57
2022/07/09 04:30:27;;;;;;;6.22;4.18;;;;;;;17.40;65.24;101120.44;5039723;28;20279;-57
2022/07/09 04:33:11;;;;;;;7.53;4.90;;;;;;;17.41;65.55;101119.56;5039721;28;20412;-58
2022/07/09 04:35:55;;;;;;;6.13;4.38;;;;;;;17.41;65.22;101114.31;5054328;28;20079;-57
2022/07/09 04:38:39;;;;;;;9.32;4.50;;;;;;;17.40;65.17;101121.31;5039150;28;20095;-59
2022/07/09 04:41:23;;;;;;;5.95;4.22;;;;;;;17.41;65.39;101123.06;5054258;28;20048;-58
2022/07/09 04:44:07;;;;;;;10.63;4.25;;;;;;;17.40;65.10;101117.81;5039206;28;20420;-58
2022/07/09 04:46:51;;;;;;;7.57;4.53;;;;;;;17.40;65.34;101121.31;5054340;28;20269;-58
2022/07/09 04:49:35;;;;;;;7.53;4.22;;;;;;;17.39;65.29;101113.44;5054505;28;20056;-58
2022/07/09 04:52:19;;;;;;;6.40;4.03;;;;;;;17.39;65.52;101113.44;5054200;28;20151;-58
2022/07/09 04:55:04;;;;;;;6.05;4.60;;;;;;;17.39;65.28;101109.09;5053658;28;20040;-58
2022/07/09 04:57:49;;;;;;;6.68;4.45;;;;;;;17.39;65.30;101114.31;5039300;28;20056;-58
2022/07/09 05:00:33;;;;;;;6.03;4.18;;;;;;;17.40;65.54;101109.94;5053588;28;20080;-57
2022/07/09 05:03:17;;;;;;;8.63;5.25;;;;;;;17.38;65.54;101109.94;5053784;28;20098;-57
2022/07/09 05:06:01;;;;;;;9.50;4.35;;;;;;;17.38;65.36;101107.34;5053618;28;20048;-57
2022/07/09 05:08:47;;;;;;;8.88;5.28;;;;;;;17.39;65.46;101113.44;5038846;28;20071;-59
2022/07/09 05:11:31;;;;;;;10.45;5.00;;;;;;;17.39;65.51;101119.56;5053517;28;20052;-58
2022/07/09 05:14:16;;;;;;;8.88;5.20;;;;;;;17.40;65.67;101117.81;5053968;28;20523;-58
2022/07/09 05:17:00;;;;;;;9.63;5.55;;;;;;;17.39;65.55;101119.56;5038757;28;20048;-59
2022/07/09 05:19:44;;;;;;;8.60;6.05;;;;;;;17.38;65.58;101122.16;5053252;28;20128;-57
2022/07/09 05:22:28;;;;;;;8.00;5.60;;;;;;;17.40;65.59;101125.66;5053333;28;20408;-58
2022/07/09 05:25:12;;;;;;;8.27;5.20;;;;;;;17.39;65.73;101124.81;5053148;28;20055;-57
2022/07/09 05:27:56;;;;;;;13.48;6.80;;;;;;;17.41;65.68;101122.19;5053327;28;20048;-57
2022/07/09 05:30:39;;;;;;;8.32;6.18;;;;;;;17.41;65.98;101119.56;5052768;28;20195;-57
2022/07/09 05:33:23;;;;;;;14.70;7.32;;;;;;;17.41;65.86;101116.94;5038363;28;20407;-58
2022/07/09 05:36:07;;;;;;;11.30;6.95;;;;;;;17.42;65.81;101116.06;5038358;28;20052;-57
2022/07/09 05:38:51;;;;;;;12.32;7.63;;;;;;;17.43;66.01;101115.22;5053562;28;20040;-58
2022/07/09 05:41:36;;;;;;;15.07;7.93;;;;;;;17.43;66.02;101103.00;5038638;28;20436;-57
2022/07/09 05:44:20;;;;;;;18.15;7.28;;;;;;;17.44;65.91;101096.84;5053063;28;20047;-57
2022/07/09 05:47:04;;;;;;;9.63;5.95;;;;;;;17.45;66.05;101108.22;5053269;28;20048;-57
2022/07/09 05:49:48;;;;;;;12.63;8.80;;;;;;;17.46;66.25;101104.75;5053264;28;20048;-57
2022/07/09 05:52:32;;;;;;;12.98;7.88;;;;;;;17.47;66.02;101106.50;5053435;28;20048;-57
2022/07/09 05:55:16;;;;;;;12.73;8.48;;;;;;;17.49;66.14;101104.78;5038475;28;20099;-57
2022/07/09 05:58:00;;;;;;;17.33;9.13;;;;;;;17.51;66.23;101103.03;5037947;28;20040;-58
2022/07/09 06:00:44;;;;;;;18.20;10.40;;;;;;;17.52;66.43;101103.91;5052825;28;20048;-57
2022/07/09 06:03:31;;;;;;;20.65;9.73;;;;;;;17.51;66.42;101103.03;5052824;28;20087;-58
2022/07/09 06:06:15;;;;;;;18.27;10.80;;;;;;;17.53;66.63;101108.28;5052965;28;20056;-58
2022/07/09 06:09:00;;;;;;;19.80;10.98;;;;;;;17.54;66.54;101105.63;5052952;28;20052;-58
2022/07/09 06:11:44;;;;;;;16.88;11.35;;;;;;;17.55;66.77;101103.91;5038112;28;20040;-57
2022/07/09 06:14:27;;;;;;;25.90;12.25;;;;;;;17.55;66.52;101104.78;5053301;28;20564;-58
2022/07/09 06:17:11;;;;;;;17.58;12.63;;;;;;;17.55;66.52;101104.78;5053423;28;20060;-58
2022/07/09 06:19:55;;;;;;;21.30;12.02;;;;;;;17.57;66.73;101096.94;5053004;28;20126;-59
2022/07/09 06:22:39;;;;;;;18.38;13.38;;;;;;;17.59;66.68;101095.19;5053366;28;20051;-57
2022/07/09 06:25:23;;;;;;;16.65;12.10;;;;;;;17.60;66.62;101096.91;5053272;28;20055;-58
2022/07/09 06:28:07;;;;;;;20.80;12.30;;;;;;;17.61;66.95;101091.72;5053312;28;20128;-57
2022/07/09 06:30:51;;;;;;;16.55;11.45;;;;;;;17.63;66.65;101100.47;5053079;28;20063;-59
2022/07/09 06:33:35;;;;;;;20.45;11.48;;;;;;;17.63;67.02;101095.22;5053166;28;20052;-59
2022/07/09 06:36:19;;;;;;;16.48;10.43;;;;;;;17.65;67.01;101093.47;5052702;28;20048;-59
2022/07/09 06:42:07;;;;;;;22.23;11.32;;;;;;;17.71;66.95;101087.38;5052681;28;20112;-59
2022/07/09 06:44:51;;;;;;;14.43;10.80;;;;;;;17.73;66.98;101083.00;5041482;28;20051;-58
2022/07/09 06:47:35;;;;;;;17.63;11.43;;;;;;;17.74;66.87;101081.25;5041548;28;20109;-57
2022/07/09 06:50:19;;;;;;;17.05;10.35;;;;;;;17.75;67.07;101096.97;5041232;28;20064;-58
2022/07/09 06:53:04;;;;;;;16.92;11.93;;;;;;;17.77;66.83;101094.38;5041355;28;20426;-58
2022/07/09 06:55:48;;;;;;;15.60;10.52;;;;;;;17.79;67.10;101101.38;5056687;28;20515;-57
2022/07/09 06:58:32;;;;;;;20.30;11.48;;;;;;;17.80;67.20;101097.88;5055959;28;20132;-57
2022/07/09 07:01:16;;;;;;;16.30;11.07;;;;;;;17.80;67.20;101095.25;5055989;28;20051;-57
2022/07/09 07:04:00;;;;;;;18.38;11.25;;;;;;;17.79;67.14;101090.88;5041312;28;20546;-58
2022/07/09 07:06:46;;;;;;;18.50;11.10;;;;;;;17.79;66.83;101095.25;5056229;28;20064;-58
2022/07/09 07:09:30;;;;;;;15.77;10.35;;;;;;;17.80;67.03;101105.75;5056210;28;20183;-58
2022/07/09 07:12:14;;;;;;;16.50;11.02;;;;;;;17.78;67.09;101099.63;5056120;28;20068;-58
2022/07/09 07:14:59;;;;;;;14.73;10.68;;;;;;;17.77;67.09;101097.84;5055796;28;20087;-59
2022/07/09 07:17:43;;;;;;;14.38;10.45;;;;;;;17.77;67.07;101104.88;5040832;28;20106;-59
2022/07/09 07:20:26;;;;;;;20.70;10.70;;;;;;;17.75;66.96;101096.13;5055853;28;20047;-59
2022/07/09 07:23:11;;;;;;;17.58;10.52;;;;;;;17.77;67.21;101099.63;5040506;28;20141;-59
2022/07/09 07:25:55;;;;;;;14.10;10.55;;;;;;;17.78;67.04;101097.00;5040933;28;20162;-60
2022/07/09 07:28:39;;;;;;;13.48;9.77;;;;;;;17.77;67.25;101090.00;5040840;28;20143;-59
2022/07/09 07:31:23;;;;;;;17.45;9.82;;;;;;;17.78;67.11;101097.00;5055910;28;20047;-58
2022/07/09 07:34:07;;;;;;;16.35;10.25;;;;;;;17.78;66.89;101096.13;5055902;28;20095;-58
2022/07/09 07:36:51;;;;;;;11.93;9.05;;;;;;;17.78;67.09;101094.38;5055950;28;20512;-57
2022/07/09 07:39:35;;;;;;;;;;;;;;;17.76;67.05;101098.72;5056176;28;20083;-58
2022/07/09 07:42:19;;;;;;;10.73;8.43;;;;;;;17.76;67.23;101103.13;5055577;28;19974;-57
2022/07/09 07:45:04;;;;;;;12.50;9.05;;;;;;;17.77;67.31;101097.84;5055535;28;20151;-58
2022/07/09 07:47:50;;;;;;;11.55;8.55;;;;;;;17.78;67.31;101091.75;5055069;28;20114;-58
2022/07/09 07:50:38;;;;;;;11.13;8.13;;;;;;;17.78;67.21;101097.00;5055181;28;20059;-58
2022/07/09 07:53:22;;;;;;;11.77;8.93;;;;;;;17.79;67.21;101097.88;5054808;28;20469;-58
2022/07/09 07:56:07;;;;;;;13.65;8.27;;;;;;;17.79;67.26;101114.47;5055083;28;20047;-58
2022/07/09 07:58:51;;;;;;;11.82;7.40;;;;;;;17.82;67.04;101108.38;5040380;28;20447;-58
2022/07/09 08:01:35;;;;;;;12.00;7.40;;;;;;;17.83;67.04;101104.00;5039698;28;20127;-58
2022/07/09 08:04:19;;;;;;;8.13;7.32;;;;;;;17.83;67.20;101107.47;5055073;28;20056;-58
2022/07/09 08:07:03;;;;;;;10.48;6.50;;;;;;;17.85;67.05;101110.13;5055166;28;20047;-57
2022/07/09 08:09:47;;;;;;;10.77;7.38;;;;;;;17.84;67.25;101111.00;5054766;28;20407;-58
2022/07/09 08:12:30;;;;;;;9.45;7.22;;;;;;;17.83;67.15;101107.47;5055132;28;20040;-58
2022/07/09 08:15:14;;;;;;;10.75;7.05;;;;;;;17.83;67.01;101106.63;5054837;28;20056;-58
2022/07/09 08:17:58;;;;;;;14.20;7.00;;;;;;;17.83;67.10;101107.47;5040038;28;20083;-58
2022/07/09 08:20:42;;;;;;;10.60;6.95;;;;;;;17.83;67.34;101104.00;5054661;28;20226;-58
2022/07/09 08:23:26;;;;;;;12.80;7.70;;;;;;;17.83;67.36;101102.25;5039817;28;20051;-58
2022/07/09 08:26:10;;;;;;;11.70;6.13;;;;;;;17.84;67.08;101090.88;5039970;28;20048;-58
2022/07/09 08:28:54;;;;;;;12.85;8.35;;;;;;;17.83;67.22;101086.50;5054881;28;20412;-58
2022/07/09 08:31:38;;;;;;;10.35;7.78;;;;;;;17.83;67.27;101081.25;5054418;28;20052;-58
2022/07/09 08:34:22;;;;;;;8.85;7.18;;;;;;;17.84;67.28;101074.28;5054333;28;20044;-58
2022/07/09 08:37:06;;;;;;;11.10;6.85;;;;;;;17.87;67.16;101071.69;5054450;28;20055;-58
2022/07/09 08:39:50;;;;;;;9.43;6.65;;;;;;;17.84;67.32;101064.66;5054422;28;20124;-58
2022/07/09 08:42:34;;;;;;;8.82;6.93;;;;;;;17.84;66.96;101067.28;5054243;28;20048;-58
2022/07/09 08:45:18;;;;;;;8.18;6.78;;;;;;;17.86;67.28;101070.78;5053767;28;20075;-58
2022/07/09 08:48:03;;;;;;;11.02;7.22;;;;;;;17.87;67.15;101076.94;5054300;28;20147;-57
2022/07/09 08:50:48;;;;;;;10.32;7.03;;;;;;;17.88;67.03;101076.06;5053822;28;20193;-57
2022/07/09 08:53:34;;;;;;;9.00;6.65;;;;;;;17.90;67.01;101074.31;5039474;28;20156;-57
2022/07/09 08:56:18;;;;;;;9.52;6.25;;;;;;;17.91;67.35;101076.94;5038722;28;20457;-58
2022/07/09 08:59:02;;;;;;;7.78;5.93;;;;;;;17.91;67.09;101082.19;5039111;28;20079;-58
2022/07/09 09:01:46;;;;;;;11.43;6.20;;;;;;;17.92;67.23;101083.94;5053878;28;20466;-58
2022/07/09 09:04:30;;;;;;;8.40;6.28;;;;;;;17.93;67.27;101085.69;5054295;28;20059;-59
2022/07/09 09:07:21;;;;;;;11.52;6.55;;;;;;;17.92;67.12;101073.44;5053804;28;20584;-58
2022/07/09 09:10:06;;;;;;;10.65;6.20;;;;;;;17.95;67.05;101073.44;5039029;28;20064;-58
2022/07/09 09:12:57;;;;;;;8.45;7.13;;;;;;;17.96;67.17;101074.31;5054017;28;20554;-59
2022/07/09 09:15:42;;;;;;;8.10;5.63;;;;;;;17.96;67.09;101072.59;5038780;28;20123;-59
2022/07/09 09:18:26;;;;;;;11.85;6.53;;;;;;;17.97;67.11;101065.56;5038545;28;20080;-59
2022/07/09 09:21:12;;;;;;;7.28;5.72;;;;;;;17.98;67.13;101069.13;5038410;28;20048;-58
2022/07/09 09:23:59;;;;;;;12.35;6.00;;;;;;;17.99;67.16;101063.88;5038708;28;20052;-58
2022/07/09 09:26:43;;;;;;;8.38;5.38;;;;;;;17.99;67.14;101057.72;5053220;28;20519;-58
2022/07/09 09:29:27;;;;;;;7.25;5.97;;;;;;;18.00;66.96;101056.84;5053775;28;20052;-60
2022/07/09 09:32:12;;;;;;;12.73;5.72;;;;;;;18.00;67.12;101055.13;5053498;28;20106;-60
2022/07/09 09:35:02;;;;;;;7.70;5.93;;;;;;;18.04;67.15;101063.88;5053383;28;20056;-60
2022/07/09 09:37:46;;;;;;;10.75;6.40;;;;;;;18.06;67.09;101068.22;5038104;28;20462;-57
2022/07/09 09:40:30;;;;;;;10.25;5.70;;;;;;;18.07;67.15;101056.88;5053556;28;20087;-59
2022/07/09 09:43:21;;;;;;;7.03;5.38;;;;;;;18.07;66.88;101049.00;5038300;28;20056;-59
2022/07/09 09:46:06;;;;;;;11.65;5.55;;;;;;;18.08;67.16;101044.66;5038043;28;20107;-60
2022/07/09 09:48:50;;;;;;;9.52;5.50;;;;;;;18.10;67.13;101045.53;5053654;28;20409;-58
2022/07/09 09:52:10;;;;;;;9.25;5.72;;;;;;;18.11;67.25;101045.50;5053409;28;20048;-58
2022/07/09 09:54:55;;;;;;;7.35;5.57;;;;;;;18.14;67.13;101039.38;4972409;28;20098;-58
2022/07/09 09:57:39;;;;;;;11.27;5.63;;;;;;;18.14;67.19;101042.00;5038362;28;20134;-57
2022/07/09 10:00:25;;;;;;;6.60;4.85;;;;;;;18.15;67.16;101041.13;5052924;28;20111;-58
2022/07/09 10:03:11;;;;;;;7.63;4.82;;;;;;;18.16;67.05;101034.16;5052797;28;20102;-59
2022/07/09 10:05:55;;;;;;;5.70;4.45;;;;;;;18.16;67.04;101027.16;5052874;28;20071;-59
2022/07/09 10:08:39;;;;;;;7.00;5.03;;;;;;;18.19;67.07;101029.78;5053250;28;20126;-59
2022/07/09 10:11:23;;;;;;;11.10;5.40;;;;;;;18.20;67.11;101030.66;5053018;28;20136;-58
2022/07/09 10:14:14;;;;;;;6.25;5.07;;;;;;;18.21;66.92;101029.78;5038192;28;20136;-58
2022/07/09 10:17:12;;;;;;;6.35;4.90;;;;;;;18.22;67.16;101028.88;5054538;28;20070;-58
2022/07/09 10:20:01;;;;;;;9.90;4.65;;;;;;;18.22;66.95;101023.66;5056792;28;20171;-58
2022/07/09 10:22:48;;;;;;;14.15;4.45;;;;;;;18.23;66.98;101026.28;5042199;28;20056;-58
2022/07/09 10:25:45;;;;;;;6.57;4.75;;;;;;;18.26;66.89;101033.28;5041610;28;20466;-57
2022/07/09 10:28:30;;;;;;;8.40;4.38;;;;;;;18.27;67.02;101024.53;5041573;28;20076;-57
2022/07/09 10:31:20;;;;;;;5.55;3.88;;;;;;;18.28;66.91;101021.03;5056600;28;20055;-58
2022/07/09 10:34:09;;;;;;;5.13;3.97;;;;;;;18.29;66.72;101020.16;5041952;28;20052;-60
2022/07/09 10:37:00;;;;;;;6.53;3.92;;;;;;;18.29;66.80;101019.31;5041794;28;20523;-59
2022/07/09 10:39:54;;;;;;;6.80;3.92;;;;;;;18.30;66.73;101016.66;5056821;28;20098;-59
2022/07/09 10:42:40;;;;;;;7.33;4.23;;;;;;;18.30;66.87;101008.78;5056429;28;20483;-58
2022/07/09 10:45:27;;;;;;;4.78;3.40;;;;;;;18.30;66.81;101010.53;5041544;28;20044;-58
2022/07/09 10:48:15;;;;;;;5.63;3.70;;;;;;;18.31;66.64;101007.91;5041718;28;20051;-58
2022/07/09 10:50:59;;;;;;;6.70;3.17;;;;;;;18.32;66.49;101003.53;5041641;28;20102;-58
2022/07/09 10:53:43;;;;;;;5.15;3.53;;;;;;;18.32;66.61;101008.78;5056512;28;20416;-58
2022/07/09 10:56:28;;;;;;;7.47;3.65;;;;;;;18.32;66.84;100993.91;5056735;28;20067;-59
2022/07/09 10:59:17;;;;;;;7.13;3.60;;;;;;;18.35;66.58;101003.53;5056483;28;20079;-59
2022/07/09 11:02:01;;;;;;;5.68;3.65;;;;;;;18.36;66.39;100992.16;5041437;28;20059;-59
2022/07/09 11:04:51;;;;;;;4.80;3.92;;;;;;;18.39;66.49;100992.16;5055768;28;20044;-58
2022/07/09 11:07:35;;;;;;;7.95;3.67;;;;;;;18.40;66.56;100986.91;5056158;28;20459;-58
2022/07/09 11:10:22;;;;;;;7.57;4.38;;;;;;;18.42;66.59;100984.28;5056068;28;20527;-58
2022/07/09 11:13:08;;;;;;;7.97;4.28;;;;;;;18.41;66.53;100980.78;5041032;28;20055;-58
2022/07/09 11:16:02;;;;;;;4.63;3.60;;;;;;;18.42;66.25;100974.66;5040666;28;20519;-58
2022/07/09 11:18:46;;;;;;;8.25;3.92;;;;;;;18.43;66.42;100970.28;5056032;28;20456;-58
2022/07/09 11:21:32;;;;;;;5.95;3.60;;;;;;;18.44;66.59;100971.16;5040770;28;20076;-58
2022/07/09 11:24:23;;;;;;;14.27;4.10;;;;;;;18.47;66.40;100971.16;5055276;28;20083;-58
2022/07/09 11:27:08;;;;;;;5.50;4.47;;;;;;;18.47;66.53;100965.91;5055995;28;20052;-58
2022/07/09 11:29:52;;;;;;;6.10;3.88;;;;;;;18.47;66.52;100972.00;5040289;28;20059;-59
2022/07/09 11:32:36;;;;;;;4.90;3.78;;;;;;;18.48;66.54;100963.25;5055910;28;20527;-61
2022/07/09 11:35:28;;;;;;;;;;;;;;;18.47;66.61;100958.91;5041465;28;20047;-60
2022/07/09 11:38:13;;;;;;;4.53;3.40;;;;;;;18.46;66.45;100951.91;5040812;28;19924;-60
2022/07/09 11:41:01;;;;;;;4.75;4.25;;;;;;;18.50;66.35;100955.41;5055502;28;20117;-59
2022/07/09 11:43:50;;;;;;;7.40;4.07;;;;;;;18.49;66.50;100951.91;5055009;28;20609;-59
2022/07/09 11:46:34;;;;;;;4.18;3.47;;;;;;;18.50;66.43;100961.50;5040590;28;20075;-58
2022/07/09 11:49:18;;;;;;;5.93;3.72;;;;;;;18.51;66.37;100959.78;5054909;28;20052;-59
2022/07/09 11:52:02;;;;;;;5.70;3.42;;;;;;;18.50;66.49;100943.16;5054986;28;20151;-58
2022/07/09 11:55:05;;;;;;;4.25;3.47;;;;;;;18.52;66.34;100946.66;5040191;28;20115;-58
2022/07/09 11:57:55;;;;;;;4.82;3.75;;;;;;;18.52;66.43;100938.78;5040098;28;20048;-58
2022/07/09 12:00:40;;;;;;;3.95;3.55;;;;;;;18.55;66.51;100944.00;5039935;28;20090;-59
2022/07/09 12:03:26;;;;;;;5.35;3.60;;;;;;;18.60;66.50;100935.25;5055173;28;20056;-59
2022/07/09 12:06:10;;;;;;;4.93;3.95;;;;;;;18.61;66.56;100937.00;5040157;28;20099;-58
2022/07/09 12:09:07;;;;;;;7.63;4.70;;;;;;;18.63;66.54;100937.84;5054545;28;20424;-60
2022/07/09 12:11:51;;;;;;;8.35;4.38;;;;;;;18.64;66.35;100934.34;5039749;28;20044;-60
2022/07/09 12:14:35;;;;;;;7.60;3.58;;;;;;;18.63;66.43;100937.84;5054402;28;20186;-59
2022/07/09 12:17:22;;;;;;;7.72;4.60;;;;;;;18.63;66.34;100928.25;5054552;28;20060;-59
2022/07/09 12:20:09;;;;;;;5.68;4.60;;;;;;;18.64;66.55;100936.97;5054255;28;20470;-58
2022/07/09 12:22:52;;;;;;;8.27;4.63;;;;;;;18.63;66.38;100930.88;5054483;28;20124;-59
2022/07/09 12:25:36;;;;;;;8.27;5.97;;;;;;;18.66;66.73;100924.72;5054439;28;20135;-58
2022/07/09 12:28:20;;;;;;;10.05;5.90;;;;;;;18.70;66.59;100921.22;5054542;28;20099;-58
2022/07/09 12:31:04;;;;;;;9.93;6.40;;;;;;;18.71;66.55;100923.81;5054659;28;20047;-61
2022/07/09 12:33:48;;;;;;;9.25;6.03;;;;;;;18.72;66.60;100919.47;5054194;28;20048;-60
2022/07/09 12:36:32;;;;;;;8.25;7.43;;;;;;;18.74;66.55;100907.22;5054035;28;20047;-60
2022/07/09 12:39:17;;;;;;;13.07;7.85;;;;;;;18.76;66.51;100913.34;5054269;28;20147;-60
2022/07/09 12:42:01;;;;;;;8.68;7.20;;;;;;;18.75;66.63;100916.84;5053632;28;20099;-59
2022/07/09 12:44:45;;;;;;;13.68;8.32;;;;;;;18.76;66.59;100920.31;5054084;28;20040;-59
2022/07/09 12:47:29;;;;;;;8.70;7.75;;;;;;;18.74;66.73;100914.19;5054131;28;20056;-58
2022/07/09 12:50:13;;;;;;;10.73;9.45;;;;;;;18.77;66.56;100925.53;5039600;28;20072;-59